createdAt,value
2023-01-25T00:00:47.498Z,22.75
2023-01-25T00:01:47.621Z,22.74
2023-01-25T00:02:47.558Z,22.74
2023-01-25T00:03:47.374Z,22.74
2023-01-25T00:04:47.338Z,22.73
2023-01-25T00:05:47.294Z,22.73
2023-01-25T00:06:47.264Z,22.73
2023-01-25T01:39:41.433Z,22.70
2023-01-25T01:40:41.386Z,22.71
2023-01-25T01:41:41.328Z,22.70
2023-01-25T01:42:41.316Z,22.70
2023-01-25T01:43:41.252Z,22.70
2023-01-25T01:44:41.220Z,22.70
2023-01-25T01:45:41.218Z,22.70
2023-01-25T01:46:41.119Z,22.69
2023-01-25T01:47:41.084Z,22.70
2023-01-25T01:48:41.041Z,22.70
2023-01-25T01:49:41.024Z,22.71
2023-01-25T01:50:40.956Z,22.71
2023-01-25T01:51:40.938Z,22.70
2023-01-25T01:52:40.870Z,22.70
2023-01-25T01:53:40.831Z,22.70
2023-01-25T01:54:40.798Z,22.70
2023-01-25T01:55:40.752Z,22.70
2023-01-25T01:56:40.707Z,22.70
2023-01-25T01:57:40.684Z,22.70
2023-01-25T01:58:40.651Z,22.70
2023-01-25T01:59:40.600Z,22.70
2023-01-25T02:00:40.556Z,22.70
2023-01-25T02:01:40.605Z,22.70
2023-01-25T02:02:40.551Z,22.69
2023-01-25T02:03:40.437Z,22.70
2023-01-25T02:04:40.410Z,22.70
2023-01-25T02:05:40.374Z,22.69
2023-01-25T02:06:40.337Z,22.69
2023-01-25T02:07:40.293Z,22.70
2023-01-25T02:08:40.256Z,22.70
2023-01-25T02:09:40.219Z,22.70
2023-01-25T02:10:40.174Z,22.71
2023-01-25T02:11:40.139Z,22.71
2023-01-25T02:12:40.084Z,22.70
2023-01-25T02:13:40.067Z,22.70
2023-01-25T02:14:40.058Z,22.70
2023-01-25T02:15:39.979Z,22.70
2023-01-25T02:16:39.929Z,22.69
2023-01-25T02:17:39.931Z,22.71
2023-01-25T02:18:39.845Z,22.69
2023-01-25T02:19:39.816Z,22.69
2023-01-25T02:20:39.776Z,22.69
2023-01-25T02:21:39.757Z,22.69
2023-01-25T02:22:39.699Z,22.69
2023-01-25T02:23:39.651Z,22.69
2023-01-25T02:24:39.611Z,22.69
2023-01-25T02:25:39.612Z,22.70
2023-01-25T02:26:39.539Z,22.68
2023-01-25T02:27:39.534Z,22.69
2023-01-25T02:28:39.530Z,22.69
2023-01-25T02:29:39.494Z,22.69
2023-01-25T02:30:39.474Z,22.68
2023-01-25T02:31:39.548Z,22.68
2023-01-25T02:32:39.352Z,22.68
2023-01-25T02:33:39.312Z,22.68
2023-01-25T02:34:39.276Z,22.68
2023-01-25T02:35:39.253Z,22.67
2023-01-25T02:36:39.222Z,22.68
2023-01-25T02:37:39.181Z,22.68
2023-01-25T02:38:39.146Z,22.67
2023-01-25T02:39:39.105Z,22.67
2023-01-25T02:40:39.073Z,22.68
2023-01-25T02:41:39.045Z,22.68
2023-01-25T02:42:39.021Z,22.68
2023-01-25T02:43:38.985Z,22.68
2023-01-25T02:44:38.949Z,22.68
2023-01-25T02:45:38.916Z,22.67
2023-01-25T02:46:39.010Z,22.68
2023-01-25T02:47:38.855Z,22.68
2023-01-25T02:48:38.829Z,22.68
2023-01-25T02:49:38.796Z,22.67
2023-01-25T02:50:38.754Z,22.68
2023-01-25T02:51:38.713Z,22.68
2023-01-25T02:52:38.682Z,22.68
2023-01-25T02:53:38.642Z,22.67
2023-01-25T02:54:38.616Z,22.67
2023-01-25T02:55:38.562Z,22.67
2023-01-25T02:56:38.522Z,22.67
2023-01-25T02:57:38.479Z,22.67
2023-01-25T02:58:38.445Z,22.68
2023-01-25T02:59:38.397Z,22.68
2023-01-25T03:00:38.367Z,22.67
2023-01-25T03:01:38.448Z,22.67
2023-01-25T03:02:38.343Z,22.68
2023-01-25T03:03:38.244Z,22.68
2023-01-25T03:04:38.208Z,22.67
2023-01-25T03:05:38.175Z,22.68
2023-01-25T03:06:38.140Z,22.68
2023-01-25T03:07:38.094Z,22.67
2023-01-25T03:08:38.053Z,22.67
2023-01-25T03:09:38.005Z,22.67
2023-01-25T03:10:37.972Z,22.67
2023-01-25T03:11:37.941Z,22.67
2023-01-25T03:12:37.906Z,22.67
2023-01-25T03:13:37.870Z,22.68
2023-01-25T03:14:37.824Z,22.67
2023-01-25T03:15:37.788Z,22.67
2023-01-25T03:16:37.805Z,22.67
2023-01-25T03:17:37.707Z,22.67
2023-01-25T03:18:37.703Z,22.67
2023-01-25T03:19:37.619Z,22.67
2023-01-25T03:20:37.585Z,22.66
2023-01-25T03:21:37.554Z,22.67
2023-01-25T03:22:37.516Z,22.67
2023-01-25T03:23:37.473Z,22.67
2023-01-25T03:24:37.436Z,22.67
2023-01-25T03:25:37.428Z,22.67
2023-01-25T03:26:37.359Z,22.67
2023-01-25T03:27:37.323Z,22.67
2023-01-25T03:28:37.292Z,22.68
2023-01-25T03:29:37.255Z,22.67
2023-01-25T03:30:37.225Z,22.67
2023-01-25T03:31:37.337Z,22.68
2023-01-25T03:32:37.132Z,22.68
2023-01-25T03:33:37.111Z,22.67
2023-01-25T03:34:37.087Z,22.68
2023-01-25T03:35:37.017Z,22.68
2023-01-25T03:36:36.972Z,22.68
2023-01-25T03:37:36.933Z,22.68
2023-01-25T03:38:36.896Z,22.67
2023-01-25T03:39:36.854Z,22.68
2023-01-25T03:40:36.816Z,22.67
2023-01-25T03:41:36.781Z,22.68
2023-01-25T03:42:36.744Z,22.68
2023-01-25T03:43:36.706Z,22.68
2023-01-25T03:44:36.679Z,22.67
2023-01-25T03:45:36.629Z,22.68
2023-01-25T03:46:36.651Z,22.67
2023-01-25T03:47:36.559Z,22.68
2023-01-25T03:48:36.519Z,22.68
2023-01-25T03:49:36.480Z,22.67
2023-01-25T03:50:36.471Z,22.68
2023-01-25T03:51:36.413Z,22.67
2023-01-25T03:52:36.356Z,22.68
2023-01-25T03:53:36.313Z,22.67
2023-01-25T03:54:36.273Z,22.68
2023-01-25T03:55:36.240Z,22.68
2023-01-25T03:56:36.225Z,22.67
2023-01-25T03:57:36.203Z,22.67
2023-01-25T03:58:36.113Z,22.68
2023-01-25T03:59:36.077Z,22.67
2023-01-25T04:00:36.049Z,22.67
2023-01-25T04:01:35.987Z,22.68
2023-01-25T04:02:35.945Z,22.67
2023-01-25T04:03:35.927Z,22.68
2023-01-25T04:04:35.854Z,22.67
2023-01-25T04:05:35.814Z,22.67
2023-01-25T04:06:35.810Z,22.68
2023-01-25T04:07:35.734Z,22.67
2023-01-25T04:08:35.698Z,22.67
2023-01-25T04:09:35.664Z,22.67
2023-01-25T04:10:35.627Z,22.67
2023-01-25T04:11:35.599Z,22.66
2023-01-25T04:12:35.562Z,22.66
2023-01-25T04:13:35.520Z,22.66
2023-01-25T04:14:44.370Z,22.66
2023-01-25T04:15:35.442Z,22.65
2023-01-25T04:16:35.502Z,22.65
2023-01-25T04:17:35.373Z,22.65
2023-01-25T04:18:35.328Z,22.65
2023-01-25T04:19:35.289Z,22.65
2023-01-25T04:20:35.250Z,22.65
2023-01-25T04:21:35.240Z,22.65
2023-01-25T04:22:35.210Z,22.65
2023-01-25T04:23:35.136Z,22.65
2023-01-25T04:24:35.098Z,22.65
2023-01-25T04:25:35.065Z,22.65
2023-01-25T04:26:35.032Z,22.65
2023-01-25T04:27:35.006Z,22.64
2023-01-25T04:28:34.999Z,22.65
2023-01-25T04:29:41.104Z,22.64
2023-01-25T04:30:34.904Z,22.64
2023-01-25T04:31:34.940Z,22.64
2023-01-25T04:32:35.013Z,22.65
2023-01-25T04:33:34.795Z,22.64
2023-01-25T04:34:34.777Z,22.64
2023-01-25T04:35:34.721Z,22.64
2023-01-25T04:36:34.684Z,22.64
2023-01-25T04:37:34.640Z,22.64
2023-01-25T04:38:34.632Z,22.64
2023-01-25T04:39:34.575Z,22.65
2023-01-25T04:40:34.532Z,22.64
2023-01-25T04:41:34.524Z,22.64
2023-01-25T04:42:34.457Z,22.64
2023-01-25T04:43:34.418Z,22.65
2023-01-25T04:44:34.377Z,22.65
2023-01-25T04:45:34.380Z,22.64
2023-01-25T04:46:34.298Z,22.65
2023-01-25T04:47:34.301Z,22.64
2023-01-25T04:48:34.224Z,22.64
2023-01-25T04:49:34.169Z,22.64
2023-01-25T04:50:34.139Z,22.65
2023-01-25T04:51:34.089Z,22.64
2023-01-25T04:52:34.047Z,22.64
2023-01-25T04:53:34.014Z,22.64
2023-01-25T04:54:33.997Z,22.64
2023-01-25T04:55:33.983Z,22.65
2023-01-25T04:56:33.904Z,22.64
2023-01-25T04:57:33.859Z,22.65
2023-01-25T04:58:33.811Z,22.64
2023-01-25T04:59:33.762Z,22.64
2023-01-25T05:00:33.719Z,22.64
2023-01-25T05:01:33.773Z,22.64
2023-01-25T05:02:33.668Z,22.64
2023-01-25T05:03:33.594Z,22.63
2023-01-25T05:04:33.546Z,22.64
2023-01-25T05:05:33.511Z,22.64
2023-01-25T05:06:33.466Z,22.64
2023-01-25T05:07:33.423Z,22.64
2023-01-25T05:08:33.377Z,22.65
2023-01-25T05:09:33.335Z,22.64
2023-01-25T05:10:33.323Z,22.64
2023-01-25T05:11:33.251Z,22.64
2023-01-25T05:12:33.217Z,22.64
2023-01-25T05:13:33.157Z,22.64
2023-01-25T05:14:33.115Z,22.64
2023-01-25T05:15:33.079Z,22.65
2023-01-25T05:16:33.065Z,22.64
2023-01-25T05:17:32.987Z,22.65
2023-01-25T05:18:47.122Z,22.64
2023-01-25T05:19:32.901Z,22.63
2023-01-25T05:20:32.856Z,22.64
2023-01-25T05:21:32.812Z,22.63
2023-01-25T05:22:32.767Z,22.63
2023-01-25T05:23:32.727Z,22.63
2023-01-25T05:24:32.715Z,22.63
2023-01-25T05:25:32.656Z,22.63
2023-01-25T05:26:32.624Z,22.63
2023-01-25T05:27:32.563Z,22.64
2023-01-25T05:28:32.517Z,22.63
2023-01-25T05:29:32.481Z,22.63
2023-01-25T05:30:32.442Z,22.63
2023-01-25T05:31:32.399Z,22.64
2023-01-25T05:32:32.347Z,22.63
2023-01-25T05:33:32.304Z,22.63
2023-01-25T05:34:32.273Z,22.64
2023-01-25T05:35:32.233Z,22.64
2023-01-25T05:36:32.191Z,22.64
2023-01-25T05:37:32.143Z,22.64
2023-01-25T05:38:32.099Z,22.63
2023-01-25T05:39:32.073Z,22.64
2023-01-25T05:40:32.019Z,22.63
2023-01-25T05:41:31.980Z,22.63
2023-01-25T05:42:31.961Z,22.63
2023-01-25T05:43:31.883Z,22.63
2023-01-25T05:44:31.840Z,22.63
2023-01-25T05:45:31.797Z,22.63
2023-01-25T05:46:31.844Z,22.62
2023-01-25T05:47:31.719Z,22.63
2023-01-25T05:48:31.664Z,22.63
2023-01-25T05:49:31.620Z,22.64
2023-01-25T05:50:31.573Z,22.63
2023-01-25T05:51:31.542Z,22.63
2023-01-25T05:52:31.480Z,22.63
2023-01-25T05:53:31.432Z,22.63
2023-01-25T05:54:31.386Z,22.63
2023-01-25T05:55:31.359Z,22.63
2023-01-25T05:56:31.305Z,22.63
2023-01-25T05:57:31.246Z,22.63
2023-01-25T05:58:31.226Z,22.63
2023-01-25T05:59:31.163Z,22.62
2023-01-25T06:00:31.113Z,22.63
2023-01-25T06:01:31.065Z,22.62
2023-01-25T06:02:31.212Z,22.62
2023-01-25T06:03:31.095Z,22.62
2023-01-25T06:04:30.940Z,22.63
2023-01-25T06:05:31.344Z,22.62
2023-01-25T06:06:30.846Z,22.62
2023-01-25T06:07:30.805Z,22.62
2023-01-25T06:08:30.765Z,22.63
2023-01-25T06:09:30.728Z,22.62
2023-01-25T06:10:30.722Z,22.63
2023-01-25T06:11:30.652Z,22.62
2023-01-25T06:12:30.601Z,22.63
2023-01-25T06:13:30.573Z,22.63
2023-01-25T06:14:30.565Z,22.63
2023-01-25T06:15:30.501Z,22.62
2023-01-25T06:16:30.834Z,22.62
2023-01-25T06:17:30.429Z,22.61
2023-01-25T06:18:31.282Z,22.61
2023-01-25T06:19:30.346Z,22.62
2023-01-25T06:20:30.312Z,22.63
2023-01-25T06:21:30.277Z,22.63
2023-01-25T06:22:30.236Z,22.64
2023-01-25T06:23:30.199Z,22.64
2023-01-25T06:24:30.213Z,22.65
2023-01-25T06:25:30.130Z,22.66
2023-01-25T06:26:30.091Z,22.65
2023-01-25T06:27:30.061Z,22.66
2023-01-25T06:28:30.007Z,22.67
2023-01-25T06:29:29.971Z,22.66
2023-01-25T06:30:30.001Z,22.67
2023-01-25T06:31:30.063Z,22.67
2023-01-25T06:32:30.342Z,22.69
2023-01-25T06:33:29.803Z,22.69
2023-01-25T06:34:29.761Z,22.71
2023-01-25T06:35:29.905Z,22.71
2023-01-25T06:36:29.692Z,22.72
2023-01-25T06:37:29.637Z,22.72
2023-01-25T06:38:29.605Z,22.74
2023-01-25T06:39:29.832Z,22.74
2023-01-25T06:40:30.246Z,22.75
2023-01-25T06:41:29.466Z,22.74
2023-01-25T06:42:29.441Z,22.76
2023-01-25T06:43:29.843Z,22.75
2023-01-25T06:44:29.341Z,22.76
2023-01-25T06:45:29.295Z,22.76
2023-01-25T06:46:29.344Z,22.76
2023-01-25T06:47:29.223Z,22.77
2023-01-25T06:48:29.177Z,22.77
2023-01-25T06:49:29.133Z,22.74
2023-01-25T06:50:29.091Z,22.75
2023-01-25T06:51:29.045Z,22.75
2023-01-25T06:52:28.997Z,22.76
2023-01-25T06:53:28.957Z,22.75
2023-01-25T06:54:28.933Z,22.73
2023-01-25T06:55:29.359Z,22.76
2023-01-25T06:56:28.841Z,22.79
2023-01-25T06:57:28.789Z,22.82
2023-01-25T06:58:28.779Z,22.85
2023-01-25T06:59:28.733Z,22.89
2023-01-25T07:00:28.691Z,22.92
2023-01-25T07:01:28.960Z,22.95
2023-01-25T07:02:28.676Z,22.99
2023-01-25T07:03:28.550Z,23.02
2023-01-25T07:04:28.841Z,23.06
2023-01-25T07:05:28.500Z,23.09
2023-01-25T07:06:29.851Z,23.13
2023-01-25T07:07:28.845Z,23.15
2023-01-25T07:08:28.661Z,23.18
2023-01-25T07:09:31.538Z,23.21
2023-01-25T07:10:28.346Z,23.23
2023-01-25T07:11:28.261Z,23.25
2023-01-25T07:12:28.217Z,23.28
2023-01-25T07:13:28.174Z,23.29
2023-01-25T07:14:28.443Z,23.32
2023-01-25T07:15:28.092Z,23.35
2023-01-25T07:16:28.046Z,23.37
2023-01-25T07:17:28.000Z,23.39
2023-01-25T07:18:27.984Z,23.43
2023-01-25T07:19:28.347Z,23.44
2023-01-25T07:20:27.878Z,23.46
2023-01-25T07:21:27.823Z,23.47
2023-01-25T07:22:27.768Z,23.50
2023-01-25T07:23:27.727Z,23.51
2023-01-25T07:24:27.874Z,23.52
2023-01-25T07:25:27.629Z,23.54
2023-01-25T07:26:27.575Z,23.56
2023-01-25T07:27:27.530Z,23.56
2023-01-25T07:28:27.477Z,23.57
2023-01-25T07:29:27.848Z,23.59
2023-01-25T07:30:27.438Z,23.61
2023-01-25T07:31:27.411Z,23.63
2023-01-25T07:32:27.298Z,23.64
2023-01-25T07:33:27.236Z,23.66
2023-01-25T07:34:27.375Z,23.66
2023-01-25T07:35:27.161Z,23.67
2023-01-25T07:36:27.111Z,23.69
2023-01-25T07:37:27.053Z,23.69
2023-01-25T07:38:27.011Z,23.70
2023-01-25T07:39:27.356Z,23.71
2023-01-25T07:40:27.373Z,23.72
2023-01-25T07:41:26.859Z,23.74
2023-01-25T07:42:27.045Z,23.75
2023-01-25T07:43:26.770Z,23.75
2023-01-25T07:44:26.742Z,23.76
2023-01-25T07:45:26.849Z,23.77
2023-01-25T07:46:26.632Z,23.75
2023-01-25T07:47:26.848Z,23.75
2023-01-25T07:48:26.538Z,23.74
2023-01-25T07:49:26.517Z,23.72
2023-01-25T07:50:26.529Z,23.70
2023-01-25T07:51:26.400Z,23.69
2023-01-25T07:52:26.336Z,23.67
2023-01-25T07:53:26.284Z,23.64
2023-01-25T07:54:26.236Z,23.63
2023-01-25T07:55:26.179Z,23.60
2023-01-25T07:56:26.132Z,23.57
2023-01-25T07:57:26.381Z,23.55
2023-01-25T07:58:26.080Z,23.53
2023-01-25T07:59:26.017Z,23.51
2023-01-25T08:00:26.441Z,23.49
2023-01-25T08:01:26.355Z,23.47
2023-01-25T08:02:25.853Z,23.45
2023-01-25T08:03:25.810Z,23.43
2023-01-25T08:04:25.781Z,23.41
2023-01-25T08:05:25.860Z,23.39
2023-01-25T08:06:25.883Z,23.37
2023-01-25T08:07:25.645Z,23.36
2023-01-25T08:08:25.585Z,23.34
2023-01-25T08:09:25.541Z,23.31
2023-01-25T08:10:25.642Z,23.30
2023-01-25T08:11:25.857Z,23.29
2023-01-25T08:12:25.413Z,23.28
2023-01-25T08:14:25.332Z,23.24
2023-01-25T08:15:25.280Z,23.24
2023-01-25T08:16:25.229Z,23.23
2023-01-25T08:17:25.190Z,23.22
2023-01-25T08:18:25.558Z,23.21
2023-01-25T08:19:25.793Z,23.21
2023-01-25T08:20:25.353Z,23.19
2023-01-25T08:21:25.650Z,23.19
2023-01-25T08:22:24.979Z,23.18
2023-01-25T08:23:24.904Z,23.18
2023-01-25T08:24:25.649Z,23.17
2023-01-25T08:25:24.805Z,23.16
2023-01-25T08:26:24.755Z,23.15
2023-01-25T08:27:24.707Z,23.15
2023-01-25T08:28:24.663Z,23.14
2023-01-25T08:29:24.868Z,23.13
2023-01-25T08:30:24.589Z,23.14
2023-01-25T08:31:24.834Z,23.13
2023-01-25T08:32:24.478Z,23.12
2023-01-25T08:33:24.445Z,23.13
2023-01-25T08:34:24.895Z,23.12
2023-01-25T08:35:24.351Z,23.12
2023-01-25T08:36:24.455Z,23.12
2023-01-25T08:37:24.276Z,23.11
2023-01-25T08:38:24.409Z,23.11
2023-01-25T08:39:24.172Z,23.12
2023-01-25T08:40:24.113Z,23.14
2023-01-25T08:41:24.080Z,23.17
2023-01-25T08:42:24.036Z,23.16
2023-01-25T08:43:24.410Z,23.19
2023-01-25T08:44:23.927Z,23.23
2023-01-25T08:45:23.895Z,23.26
2023-01-25T08:46:23.862Z,23.29
2023-01-25T08:47:23.760Z,23.33
2023-01-25T08:48:23.871Z,23.38
2023-01-25T08:49:23.871Z,23.41
2023-01-25T08:50:23.607Z,23.44
2023-01-25T08:51:23.567Z,23.41
2023-01-25T08:52:23.881Z,23.41
2023-01-25T08:53:24.509Z,23.42
2023-01-25T08:54:23.907Z,23.43
2023-01-25T08:55:23.359Z,23.43
2023-01-25T08:56:23.297Z,23.43
2023-01-25T08:57:23.251Z,23.43
2023-01-25T08:58:23.379Z,23.42
2023-01-25T08:59:23.151Z,23.41
2023-01-25T09:00:23.110Z,23.39
2023-01-25T09:01:23.056Z,23.38
2023-01-25T09:02:23.000Z,23.38
2023-01-25T09:03:23.408Z,23.37
2023-01-25T09:04:22.949Z,23.35
2023-01-25T09:05:22.856Z,23.35
2023-01-25T09:06:22.796Z,23.35
2023-01-25T09:07:22.876Z,23.35
2023-01-25T09:08:22.686Z,23.34
2023-01-25T09:09:22.645Z,23.34
2023-01-25T09:10:22.615Z,23.34
2023-01-25T09:11:22.554Z,23.33
2023-01-25T09:12:22.886Z,23.32
2023-01-25T09:13:22.464Z,23.32
2023-01-25T09:14:22.391Z,23.32
2023-01-25T09:15:22.344Z,23.33
2023-01-25T09:16:22.378Z,23.34
2023-01-25T09:17:22.395Z,23.33
2023-01-25T09:18:22.209Z,23.32
2023-01-25T09:19:22.160Z,23.33
2023-01-25T09:20:22.106Z,23.32
2023-01-25T09:21:22.243Z,23.32
2023-01-25T09:22:22.008Z,23.32
2023-01-25T09:23:21.954Z,23.32
2023-01-25T09:24:22.513Z,23.32
2023-01-25T09:25:21.857Z,23.33
2023-01-25T09:26:21.851Z,23.33
2023-01-25T09:27:21.769Z,23.33
2023-01-25T09:28:21.733Z,23.32
2023-01-25T09:29:21.669Z,23.32
2023-01-25T09:30:24.680Z,23.31
2023-01-25T09:31:23.607Z,23.31
2023-01-25T09:32:21.757Z,23.30
2023-01-25T09:33:21.470Z,23.31
2023-01-25T09:34:21.888Z,23.32
2023-01-25T09:35:21.392Z,23.32
2023-01-25T09:36:21.341Z,23.32
2023-01-25T09:37:21.303Z,23.33
2023-01-25T09:38:21.240Z,23.34
2023-01-25T09:39:21.396Z,23.32
2023-01-25T09:40:21.400Z,23.33
2023-01-25T09:41:21.090Z,23.34
2023-01-25T09:42:21.554Z,23.34
2023-01-25T09:43:20.993Z,23.35
2023-01-25T09:44:20.992Z,23.35
2023-01-25T09:45:22.423Z,23.36
2023-01-25T09:46:20.956Z,23.35
2023-01-25T09:47:20.840Z,23.35
2023-01-25T09:48:20.979Z,23.36
2023-01-25T09:49:21.985Z,23.35
2023-01-25T09:50:20.742Z,23.36
2023-01-25T09:51:21.677Z,23.36
2023-01-25T09:52:20.927Z,23.36
2023-01-25T09:53:21.568Z,23.37
2023-01-25T09:54:20.510Z,23.37
2023-01-25T09:55:20.935Z,23.37
2023-01-25T09:56:21.466Z,23.38
2023-01-25T09:57:20.404Z,23.37
2023-01-25T09:58:20.383Z,23.37
2023-01-25T09:59:20.321Z,23.39
2023-01-25T10:00:20.278Z,23.38
2023-01-25T10:01:29.655Z,23.38
2023-01-25T10:02:20.239Z,23.38
2023-01-25T10:03:20.134Z,23.39
2023-01-25T10:04:20.075Z,23.39
2023-01-25T10:05:21.447Z,23.39
2023-01-25T10:06:20.314Z,23.38
2023-01-25T10:07:19.942Z,23.39
2023-01-25T10:08:19.911Z,23.39
2023-01-25T10:09:19.824Z,23.38
2023-01-25T10:10:19.926Z,23.39
2023-01-25T10:11:19.727Z,23.38
2023-01-25T10:12:19.690Z,23.39
2023-01-25T10:13:19.637Z,23.39
2023-01-25T10:14:20.430Z,23.39
2023-01-25T10:15:20.201Z,23.39
2023-01-25T10:16:25.691Z,23.39
2023-01-25T10:17:19.571Z,23.38
2023-01-25T10:18:19.822Z,23.39
2023-01-25T10:19:19.379Z,23.39
2023-01-25T10:20:19.424Z,23.40
2023-01-25T10:21:19.320Z,23.40
2023-01-25T10:22:19.263Z,23.40
2023-01-25T10:23:19.187Z,23.39
2023-01-25T10:24:19.223Z,23.39
2023-01-25T10:25:19.411Z,23.39
2023-01-25T10:26:19.067Z,23.38
2023-01-25T10:27:19.020Z,23.38
2023-01-25T10:28:18.996Z,23.39
2023-01-25T10:29:18.940Z,23.13
2023-01-25T10:30:19.431Z,22.10
2023-01-25T10:31:19.127Z,20.54
2023-01-25T10:32:18.857Z,19.91
2023-01-25T10:33:18.880Z,18.98
2023-01-25T10:34:18.865Z,18.47
2023-01-25T10:35:34.463Z,18.41
2023-01-25T10:36:18.862Z,18.59
2023-01-25T10:37:19.829Z,18.85
2023-01-25T10:38:18.820Z,19.07
2023-01-25T10:39:18.836Z,19.28
2023-01-25T10:40:21.240Z,19.49
2023-01-25T10:41:18.822Z,19.72
2023-01-25T10:42:18.784Z,19.95
2023-01-25T10:43:18.786Z,20.18
2023-01-25T10:44:18.771Z,20.40
2023-01-25T10:45:18.958Z,20.61
2023-01-25T10:46:18.996Z,20.81
2023-01-25T10:47:18.736Z,21.00
2023-01-25T10:48:18.688Z,21.19
2023-01-25T10:49:19.068Z,21.36
2023-01-25T10:50:18.633Z,21.52
2023-01-25T10:51:18.940Z,21.66
2023-01-25T10:52:18.613Z,21.82
2023-01-25T10:53:18.580Z,21.95
2023-01-25T10:54:18.483Z,22.08
2023-01-25T10:55:18.494Z,22.19
2023-01-25T10:56:18.452Z,22.29
2023-01-25T10:57:18.402Z,22.38
2023-01-25T10:58:18.550Z,22.45
2023-01-25T10:59:18.335Z,22.54
2023-01-25T11:00:18.307Z,22.61
2023-01-25T11:01:18.521Z,22.68
2023-01-25T11:02:18.261Z,22.75
2023-01-25T11:03:18.164Z,22.82
2023-01-25T11:04:18.119Z,22.88
2023-01-25T11:05:18.105Z,22.94
2023-01-25T11:06:18.451Z,22.99
2023-01-25T11:07:17.992Z,23.03
2023-01-25T11:08:17.952Z,23.09
2023-01-25T11:09:18.141Z,23.14
2023-01-25T11:10:17.908Z,23.18
2023-01-25T11:11:18.032Z,23.19
2023-01-25T11:12:17.794Z,23.11
2023-01-25T11:13:17.931Z,23.04
2023-01-25T11:14:17.699Z,23.02
2023-01-25T11:15:17.658Z,23.01
2023-01-25T11:16:17.665Z,23.03
2023-01-25T11:17:17.593Z,23.05
2023-01-25T11:18:17.627Z,23.09
2023-01-25T11:19:17.516Z,23.13
2023-01-25T11:20:17.516Z,23.17
2023-01-25T11:21:17.923Z,23.21
2023-01-25T11:22:17.413Z,23.25
2023-01-25T11:23:17.365Z,23.30
2023-01-25T11:24:17.373Z,23.35
2023-01-25T11:25:17.423Z,23.39
2023-01-25T11:26:17.254Z,23.44
2023-01-25T11:27:17.204Z,23.47
2023-01-25T11:28:17.215Z,23.50
2023-01-25T11:29:17.142Z,23.53
2023-01-25T11:30:17.428Z,23.55
2023-01-25T11:31:17.193Z,23.58
2023-01-25T11:32:16.995Z,23.61
2023-01-25T11:33:16.998Z,23.64
2023-01-25T11:34:16.948Z,23.67
2023-01-25T11:35:16.938Z,23.70
2023-01-25T11:36:16.831Z,23.72
2023-01-25T11:37:16.795Z,23.75
2023-01-25T11:38:16.739Z,23.77
2023-01-25T11:39:16.977Z,23.79
2023-01-25T11:40:16.653Z,23.82
2023-01-25T11:41:17.617Z,23.83
2023-01-25T11:42:16.565Z,23.86
2023-01-25T11:43:16.529Z,23.87
2023-01-25T11:44:16.486Z,23.88
2023-01-25T11:45:16.934Z,23.91
2023-01-25T11:46:16.405Z,23.91
2023-01-25T11:47:17.055Z,23.91
2023-01-25T11:48:16.312Z,23.86
2023-01-25T11:49:16.264Z,23.80
2023-01-25T11:50:16.244Z,23.73
2023-01-25T11:51:16.196Z,23.68
2023-01-25T11:52:16.145Z,23.67
2023-01-25T11:53:16.100Z,23.66
2023-01-25T11:54:16.059Z,23.66
2023-01-25T11:55:16.003Z,23.67
2023-01-25T11:56:16.456Z,23.69
2023-01-25T11:57:15.910Z,23.71
2023-01-25T11:58:15.969Z,23.73
2023-01-25T11:59:15.831Z,23.76
2023-01-25T12:00:15.762Z,23.78
2023-01-25T12:01:15.936Z,23.81
2023-01-25T12:02:15.688Z,23.83
2023-01-25T12:03:16.911Z,23.84
2023-01-25T12:04:15.641Z,23.87
2023-01-25T12:05:21.593Z,23.89
2023-01-25T12:06:15.726Z,23.91
2023-01-25T12:07:15.417Z,23.93
2023-01-25T12:08:15.385Z,23.94
2023-01-25T12:09:15.321Z,23.94
2023-01-25T12:10:15.284Z,23.97
2023-01-25T12:11:15.231Z,23.99
2023-01-25T12:12:15.182Z,24.00
2023-01-25T12:13:15.136Z,24.01
2023-01-25T12:14:15.097Z,24.02
2023-01-25T12:15:15.481Z,24.04
2023-01-25T12:16:15.039Z,23.98
2023-01-25T12:17:14.941Z,23.98
2023-01-25T12:18:14.896Z,23.99
2023-01-25T12:19:14.857Z,23.94
2023-01-25T12:20:14.945Z,23.93
2023-01-25T12:21:22.870Z,23.92
2023-01-25T12:22:14.763Z,23.90
2023-01-25T12:23:14.948Z,23.90
2023-01-25T12:24:14.682Z,23.90
2023-01-25T12:25:14.590Z,23.90
2023-01-25T12:26:14.549Z,23.90
2023-01-25T12:27:14.507Z,23.89
2023-01-25T12:28:14.472Z,23.88
2023-01-25T12:29:14.430Z,23.88
2023-01-25T12:30:14.396Z,23.87
2023-01-25T12:31:14.438Z,23.87
2023-01-25T12:32:14.307Z,23.87
2023-01-25T12:33:15.062Z,23.88
2023-01-25T12:34:14.236Z,23.88
2023-01-25T12:35:14.185Z,23.88
2023-01-25T12:36:14.149Z,23.86
2023-01-25T12:37:14.450Z,23.88
2023-01-25T12:38:14.091Z,23.88
2023-01-25T12:39:14.019Z,23.89
2023-01-25T12:40:13.997Z,23.88
2023-01-25T12:41:13.940Z,23.89
2023-01-25T12:42:13.900Z,23.89
2023-01-25T12:43:13.854Z,23.90
2023-01-25T12:44:13.812Z,23.91
2023-01-25T12:45:13.963Z,23.91
2023-01-25T12:46:13.888Z,23.91
2023-01-25T12:47:15.089Z,23.91
2023-01-25T12:48:13.655Z,23.90
2023-01-25T12:49:13.617Z,23.89
2023-01-25T12:50:13.996Z,23.90
2023-01-25T12:51:13.536Z,23.92
2023-01-25T12:52:13.506Z,23.93
2023-01-25T12:53:13.439Z,23.94
2023-01-25T12:54:13.425Z,23.95
2023-01-25T12:55:13.349Z,23.97
2023-01-25T12:56:13.301Z,23.99
2023-01-25T12:57:13.262Z,24.01
2023-01-25T12:58:13.230Z,24.02
2023-01-25T12:59:13.167Z,24.03
2023-01-25T13:00:13.324Z,24.05
2023-01-25T13:01:13.116Z,24.04
2023-01-25T13:02:13.097Z,24.04
2023-01-25T13:03:12.997Z,24.05
2023-01-25T13:04:12.927Z,24.05
2023-01-25T13:05:12.957Z,24.00
2023-01-25T13:06:12.962Z,23.99
2023-01-25T13:07:12.770Z,23.95
2023-01-25T13:08:23.050Z,23.93
2023-01-25T13:09:12.752Z,23.94
2023-01-25T13:10:12.940Z,23.89
2023-01-25T13:11:12.585Z,23.79
2023-01-25T13:12:12.542Z,23.62
2023-01-25T13:13:12.502Z,23.44
2023-01-25T13:14:12.451Z,23.34
2023-01-25T13:15:12.399Z,23.31
2023-01-25T13:16:12.396Z,23.31
2023-01-25T13:17:12.491Z,23.32
2023-01-25T13:18:12.280Z,23.35
2023-01-25T13:19:12.242Z,23.38
2023-01-25T13:20:12.781Z,23.42
2023-01-25T13:21:12.159Z,23.47
2023-01-25T13:22:12.130Z,23.51
2023-01-25T13:23:12.079Z,23.55
2023-01-25T13:24:12.149Z,23.58
2023-01-25T13:25:12.202Z,23.63
2023-01-25T13:26:12.000Z,23.67
2023-01-25T13:27:11.895Z,23.70
2023-01-25T13:28:11.972Z,23.73
2023-01-25T13:29:11.818Z,23.77
2023-01-25T13:30:12.297Z,23.80
2023-01-25T13:31:11.863Z,23.82
2023-01-25T13:32:11.773Z,23.84
2023-01-25T13:33:11.644Z,23.85
2023-01-25T13:34:11.605Z,23.87
2023-01-25T13:35:11.555Z,23.90
2023-01-25T13:36:11.503Z,23.93
2023-01-25T13:37:11.470Z,23.95
2023-01-25T13:38:11.471Z,23.96
2023-01-25T13:39:11.339Z,23.99
2023-01-25T13:40:11.683Z,24.01
2023-01-25T13:41:11.244Z,24.02
2023-01-25T13:42:11.226Z,24.04
2023-01-25T13:43:11.473Z,24.06
2023-01-25T13:44:11.077Z,24.05
2023-01-25T13:45:11.753Z,24.06
2023-01-25T13:46:10.976Z,24.07
2023-01-25T13:47:10.933Z,24.09
2023-01-25T13:48:10.877Z,24.10
2023-01-25T13:49:10.823Z,24.11
2023-01-25T13:50:11.525Z,24.12
2023-01-25T13:51:10.725Z,24.14
2023-01-25T13:52:10.671Z,24.16
2023-01-25T13:53:10.628Z,24.15
2023-01-25T13:54:10.580Z,24.13
2023-01-25T13:55:10.977Z,24.00
2023-01-25T13:56:10.505Z,23.53
2023-01-25T13:57:10.676Z,23.05
2023-01-25T13:58:10.467Z,22.77
2023-01-25T13:59:10.380Z,22.62
2023-01-25T14:00:11.239Z,22.58
2023-01-25T14:01:10.399Z,22.65
2023-01-25T14:02:10.340Z,22.74
2023-01-25T14:03:10.253Z,22.83
2023-01-25T14:04:10.214Z,22.93
2023-01-25T14:05:10.483Z,23.01
2023-01-25T14:06:10.134Z,23.10
2023-01-25T14:07:10.163Z,23.14
2023-01-25T14:08:10.088Z,23.19
2023-01-25T14:09:10.029Z,23.22
2023-01-25T14:10:10.959Z,23.27
2023-01-25T14:11:09.951Z,23.31
2023-01-25T14:12:09.983Z,23.36
2023-01-25T14:13:09.874Z,23.41
2023-01-25T14:14:09.889Z,23.44
2023-01-25T14:15:09.982Z,23.47
2023-01-25T14:16:09.806Z,23.50
2023-01-25T14:17:09.998Z,23.54
2023-01-25T14:18:09.668Z,23.57
2023-01-25T14:19:09.623Z,23.60
2023-01-25T14:20:09.940Z,23.63
2023-01-25T14:21:09.986Z,23.66
2023-01-25T14:22:09.514Z,23.68
2023-01-25T14:23:09.461Z,23.71
2023-01-25T14:24:09.548Z,23.73
2023-01-25T14:25:09.386Z,23.75